createdAt,value
2023-03-15T00:00:24.127Z,0.00
2023-03-15T00:01:24.077Z,0.00
2023-03-15T00:02:24.131Z,0.00
2023-03-15T00:03:24.124Z,0.00
2023-03-15T00:04:24.067Z,0.00
2023-03-15T00:05:24.065Z,0.00
2023-03-15T00:06:24.261Z,0.00
2023-03-15T00:07:24.077Z,0.00
2023-03-15T00:08:24.052Z,0.00
2023-03-15T00:09:24.004Z,0.00
2023-03-15T00:10:24.013Z,0.00
2023-03-15T00:11:24.053Z,0.00
2023-03-15T00:12:24.091Z,0.00
2023-03-15T00:13:24.011Z,0.00
2023-03-15T00:14:24.035Z,0.00
2023-03-15T00:15:24.007Z,0.00
2023-03-15T00:16:24.242Z,0.00
2023-03-15T00:17:23.996Z,0.00
2023-03-15T00:18:23.965Z,0.00
2023-03-15T00:19:23.955Z,0.00
2023-03-15T00:20:23.972Z,0.00
2023-03-15T00:21:23.970Z,0.00
2023-03-15T00:22:23.946Z,0.00
2023-03-15T00:23:23.950Z,0.00
2023-03-15T00:24:25.168Z,0.00
2023-03-15T00:25:24.923Z,0.00
2023-03-15T00:26:23.894Z,0.00
2023-03-15T00:27:23.929Z,0.00
2023-03-15T00:28:23.908Z,0.00
2023-03-15T00:29:23.910Z,0.00
2023-03-15T00:30:23.834Z,0.00
2023-03-15T00:31:23.875Z,0.00
2023-03-15T00:32:23.910Z,0.00
2023-03-15T00:33:23.849Z,0.00
2023-03-15T00:34:23.930Z,0.00
2023-03-15T00:35:23.840Z,0.00
2023-03-15T00:36:23.856Z,0.00
2023-03-15T00:37:23.793Z,0.00
2023-03-15T00:38:23.779Z,0.00
2023-03-15T00:39:23.843Z,0.00
2023-03-15T00:40:23.800Z,0.00
2023-03-15T00:41:23.779Z,0.00
2023-03-15T00:42:23.768Z,0.00
2023-03-15T00:43:23.747Z,0.00
2023-03-15T00:44:23.829Z,0.00
2023-03-15T00:45:23.734Z,0.00
2023-03-15T00:46:23.813Z,0.00
2023-03-15T00:47:23.721Z,0.00
2023-03-15T00:48:23.733Z,0.00
2023-03-15T00:49:23.905Z,0.00
2023-03-15T00:50:23.673Z,0.00
2023-03-15T00:51:23.711Z,0.00
2023-03-15T00:52:23.695Z,0.00
2023-03-15T00:53:23.688Z,0.00
2023-03-15T00:54:23.675Z,0.00
2023-03-15T00:55:55.595Z,0.00
2023-03-15T00:56:23.645Z,0.00
2023-03-15T00:57:23.642Z,0.00
2023-03-15T00:58:25.304Z,0.00
2023-03-15T00:59:24.628Z,0.00
2023-03-15T01:00:23.604Z,0.00
2023-03-15T01:01:23.721Z,0.00
2023-03-15T01:02:23.585Z,0.00
2023-03-15T01:03:24.600Z,0.00
2023-03-15T01:04:23.612Z,0.00
2023-03-15T01:05:23.606Z,0.00
2023-03-15T01:06:23.583Z,0.00
2023-03-15T01:07:23.559Z,0.00
2023-03-15T01:08:23.546Z,0.00
2023-03-15T01:09:23.543Z,0.00
2023-03-15T01:10:23.577Z,0.00
2023-03-15T01:11:23.543Z,0.00
2023-03-15T01:12:23.522Z,0.00
2023-03-15T01:13:23.529Z,0.00
2023-03-15T01:14:23.525Z,0.00
2023-03-15T01:15:23.518Z,0.00
2023-03-15T01:16:23.551Z,0.00
2023-03-15T01:17:23.487Z,0.00
2023-03-15T01:18:23.494Z,0.00
2023-03-15T01:19:23.943Z,0.00
2023-03-15T01:20:23.439Z,0.00
2023-03-15T01:21:23.454Z,0.00
2023-03-15T01:22:23.481Z,0.00
2023-03-15T01:23:23.478Z,0.00
2023-03-15T01:24:23.466Z,0.00
2023-03-15T01:25:23.442Z,0.00
2023-03-15T01:26:23.479Z,0.00
2023-03-15T01:27:23.389Z,0.00
2023-03-15T01:28:23.408Z,0.00
2023-03-15T01:29:23.436Z,0.00
2023-03-15T01:30:23.370Z,0.00
2023-03-15T01:31:23.451Z,0.00
2023-03-15T01:32:23.471Z,0.00
2023-03-15T01:33:23.395Z,0.00
2023-03-15T01:34:23.350Z,0.00
2023-03-15T01:35:23.362Z,0.00
2023-03-15T01:36:23.320Z,0.00
2023-03-15T01:37:23.325Z,0.00
2023-03-15T01:38:23.362Z,0.00
2023-03-15T01:39:23.310Z,0.00
2023-03-15T01:40:23.292Z,0.00
2023-03-15T01:41:23.309Z,0.00
2023-03-15T01:42:23.291Z,0.00
2023-03-15T01:43:23.318Z,0.00
2023-03-15T01:44:23.288Z,0.00
2023-03-15T01:45:23.266Z,0.00
2023-03-15T01:46:23.326Z,0.00
2023-03-15T01:47:23.238Z,0.00
2023-03-15T01:48:23.235Z,0.00
2023-03-15T01:49:23.233Z,0.00
2023-03-15T01:50:23.205Z,0.00
2023-03-15T01:51:23.269Z,0.00
2023-03-15T01:52:23.254Z,0.00
2023-03-15T01:53:23.230Z,0.00
2023-03-15T01:54:23.209Z,0.00
2023-03-15T01:55:23.229Z,0.00
2023-03-15T01:56:23.177Z,0.00
2023-03-15T01:57:23.187Z,0.00
2023-03-15T01:58:23.159Z,0.00
2023-03-15T01:59:23.160Z,0.00
2023-03-15T02:00:23.146Z,0.00
2023-03-15T02:01:23.122Z,0.00
2023-03-15T02:02:23.263Z,0.00
2023-03-15T02:03:23.136Z,0.00
2023-03-15T02:04:23.137Z,0.00
2023-03-15T02:05:23.112Z,0.00
2023-03-15T02:06:23.108Z,0.00
2023-03-15T02:07:23.102Z,0.00
2023-03-15T02:08:23.071Z,0.00
2023-03-15T02:09:23.130Z,0.00
2023-03-15T02:10:23.094Z,0.00
2023-03-15T02:11:23.059Z,0.00
2023-03-15T02:12:23.062Z,0.00
2023-03-15T02:13:23.084Z,0.00
2023-03-15T02:14:23.073Z,0.00
2023-03-15T02:15:23.042Z,0.00
2023-03-15T02:16:23.185Z,0.00
2023-03-15T02:17:23.030Z,0.00
2023-03-15T02:18:23.052Z,0.00
2023-03-15T02:19:23.038Z,0.00
2023-03-15T02:20:23.005Z,0.00
2023-03-15T02:21:23.157Z,0.00
2023-03-15T02:22:22.973Z,0.00
2023-03-15T02:23:23.003Z,0.00
2023-03-15T02:24:22.993Z,0.00
2023-03-15T02:25:22.994Z,0.00
2023-03-15T02:26:23.005Z,0.00
2023-03-15T02:27:22.949Z,0.00
2023-03-15T02:28:22.946Z,0.00
2023-03-15T02:29:22.968Z,0.00
2023-03-15T02:30:22.911Z,0.00
2023-03-15T02:31:23.004Z,0.00
2023-03-15T02:32:22.967Z,0.00
2023-03-15T02:33:22.916Z,0.00
2023-03-15T02:34:22.890Z,0.00
2023-03-15T02:35:23.912Z,0.00
2023-03-15T02:36:22.905Z,0.00
2023-03-15T02:37:22.909Z,0.00
2023-03-15T02:38:22.901Z,0.00
2023-03-15T02:39:22.849Z,0.00
2023-03-15T02:40:22.865Z,0.00
2023-03-15T02:41:22.877Z,0.00
2023-03-15T02:42:22.875Z,0.00
2023-03-15T02:43:22.832Z,0.00
2023-03-15T02:44:22.865Z,0.00
2023-03-15T02:45:22.813Z,0.00
2023-03-15T02:46:22.905Z,0.00
2023-03-15T02:47:22.844Z,0.00
2023-03-15T02:48:22.810Z,0.00
2023-03-15T02:49:22.791Z,0.00
2023-03-15T02:50:22.788Z,0.00
2023-03-15T02:51:22.755Z,0.00
2023-03-15T02:52:22.802Z,0.00
2023-03-15T02:53:22.760Z,0.00
2023-03-15T02:54:22.745Z,0.00
2023-03-15T02:55:22.752Z,0.00
2023-03-15T02:56:22.733Z,0.00
2023-03-15T02:57:22.746Z,0.00
2023-03-15T02:58:22.730Z,0.00
2023-03-15T02:59:22.725Z,0.00
2023-03-15T03:00:22.711Z,0.00
2023-03-15T03:01:22.828Z,0.00
2023-03-15T03:02:22.748Z,0.00
2023-03-15T03:03:22.745Z,0.00
2023-03-15T03:04:22.690Z,0.00
2023-03-15T03:05:22.693Z,0.00
2023-03-15T03:06:22.671Z,0.00
2023-03-15T03:07:22.659Z,0.00
2023-03-15T03:08:22.731Z,0.00
2023-03-15T03:09:23.589Z,0.00
2023-03-15T03:10:22.650Z,0.00
2023-03-15T03:11:22.619Z,0.00
2023-03-15T03:12:22.623Z,0.00
2023-03-15T03:13:22.646Z,0.00
2023-03-15T03:14:22.612Z,0.00
2023-03-15T03:15:22.672Z,0.00
2023-03-15T03:16:22.654Z,0.00
2023-03-15T03:17:22.589Z,0.00
2023-03-15T03:18:22.599Z,0.00
2023-03-15T03:19:22.631Z,0.00
2023-03-15T03:20:22.607Z,0.00
2023-03-15T03:21:22.552Z,0.00
2023-03-15T03:22:22.543Z,0.00
2023-03-15T03:23:22.557Z,0.00
2023-03-15T03:24:22.611Z,0.00
2023-03-15T03:25:22.521Z,0.00
2023-03-15T03:26:22.513Z,0.00
2023-03-15T03:27:22.491Z,0.00
2023-03-15T03:28:22.485Z,0.00
2023-03-15T03:29:22.515Z,0.00
2023-03-15T03:30:22.490Z,0.00
2023-03-15T03:31:23.436Z,0.00
2023-03-15T03:32:22.635Z,0.00
2023-03-15T03:33:22.453Z,0.00
2023-03-15T03:34:22.663Z,0.00
2023-03-15T03:35:22.463Z,0.00
2023-03-15T03:36:22.454Z,0.00
2023-03-15T03:37:22.429Z,0.00
2023-03-15T03:38:22.454Z,0.00
2023-03-15T03:39:22.418Z,0.00
2023-03-15T03:40:22.429Z,0.00
2023-03-15T03:41:22.425Z,0.00
2023-03-15T03:42:22.409Z,0.00
2023-03-15T03:43:22.407Z,0.00
2023-03-15T03:44:22.413Z,0.00
2023-03-15T03:45:22.383Z,0.00
2023-03-15T03:46:22.430Z,0.00
2023-03-15T04:02:37.980Z,0.00
2023-03-15T04:03:37.855Z,0.00
2023-03-15T04:04:37.856Z,0.00
2023-03-15T04:05:39.012Z,0.00
2023-03-15T04:06:38.976Z,0.00
2023-03-15T04:07:38.981Z,0.00
2023-03-15T04:08:38.998Z,0.00
2023-03-15T04:09:38.954Z,0.00
2023-03-15T04:10:38.962Z,0.00
2023-03-15T04:11:39.600Z,0.00
2023-03-15T04:12:39.020Z,0.00
2023-03-15T04:13:38.935Z,0.00
2023-03-15T04:14:38.933Z,0.00
2023-03-15T04:15:39.078Z,0.00
2023-03-15T04:16:38.900Z,0.00
2023-03-15T04:17:38.890Z,0.00
2023-03-15T04:18:39.588Z,0.00
2023-03-15T04:19:38.917Z,0.00
2023-03-15T04:20:38.878Z,0.00
2023-03-15T04:21:38.901Z,0.00
2023-03-15T04:22:38.925Z,0.00
2023-03-15T04:23:39.592Z,0.00
2023-03-15T04:24:38.846Z,0.00
2023-03-15T04:25:38.831Z,0.00
2023-03-15T04:26:38.818Z,0.00
2023-03-15T04:27:38.838Z,0.00
2023-03-15T04:28:38.817Z,0.00
2023-03-15T04:29:38.809Z,0.00
2023-03-15T04:30:38.790Z,0.00
2023-03-15T04:31:38.844Z,0.00
2023-03-15T04:32:38.827Z,0.00
2023-03-15T04:33:38.790Z,0.00
2023-03-15T04:34:38.830Z,0.00
2023-03-15T04:35:38.795Z,0.00
2023-03-15T04:36:38.771Z,0.00
2023-03-15T04:37:38.764Z,0.00
2023-03-15T04:38:38.868Z,0.00
2023-03-15T04:39:38.722Z,0.00
2023-03-15T04:40:38.723Z,0.00
2023-03-15T04:41:38.734Z,0.00
2023-03-15T04:42:38.727Z,0.00
2023-03-15T04:43:38.711Z,0.00
2023-03-15T04:44:38.752Z,0.00
2023-03-15T04:45:40.127Z,0.00
2023-03-15T04:46:38.743Z,0.00
2023-03-15T04:47:38.679Z,0.00
2023-03-15T04:48:38.665Z,0.00
2023-03-15T04:49:38.749Z,0.00
2023-03-15T04:50:38.637Z,0.00
2023-03-15T04:51:38.645Z,0.00
2023-03-15T04:52:38.669Z,0.00
2023-03-15T04:53:38.610Z,0.00
2023-03-15T04:54:38.668Z,0.00
2023-03-15T04:55:38.615Z,0.00
2023-03-15T04:56:38.677Z,0.00
2023-03-15T04:57:38.588Z,0.00
2023-03-15T04:58:38.624Z,0.00
2023-03-15T04:59:38.587Z,0.00
2023-03-15T05:00:38.620Z,0.00
2023-03-15T05:01:38.597Z,0.00
2023-03-15T05:02:38.578Z,0.00
2023-03-15T05:03:38.541Z,0.00
2023-03-15T05:04:38.539Z,0.00
2023-03-15T05:05:38.554Z,0.00
2023-03-15T05:06:38.546Z,0.00
2023-03-15T05:07:38.508Z,0.00
2023-03-15T05:08:38.509Z,0.00
2023-03-15T05:09:39.759Z,0.00
2023-03-15T05:10:39.615Z,0.00
2023-03-15T05:11:38.528Z,0.00
2023-03-15T05:12:39.800Z,0.00
2023-03-15T05:13:38.482Z,0.00
2023-03-15T05:14:38.459Z,0.00
2023-03-15T05:15:38.462Z,0.00
2023-03-15T05:16:38.541Z,4.00
2023-03-15T05:17:38.540Z,4.00
2023-03-15T05:18:38.481Z,0.00
2023-03-15T05:19:38.459Z,4.00
2023-03-15T05:20:38.412Z,4.00
2023-03-15T05:21:38.405Z,4.00
2023-03-15T05:22:38.428Z,4.00
2023-03-15T05:23:38.381Z,4.00
2023-03-15T05:24:38.382Z,4.00
2023-03-15T05:25:38.863Z,4.00
2023-03-15T05:26:39.399Z,8.00
2023-03-15T05:27:38.488Z,8.00
2023-03-15T05:28:38.349Z,8.00
2023-03-15T05:29:38.347Z,8.00
2023-03-15T05:30:38.351Z,16.00
2023-03-15T05:31:38.326Z,12.00
2023-03-15T05:32:38.387Z,16.00
2023-03-15T05:33:38.379Z,20.00
2023-03-15T05:34:38.328Z,20.00
2023-03-15T05:35:38.377Z,20.00
2023-03-15T05:36:38.295Z,20.00
2023-03-15T05:37:38.308Z,28.00
2023-03-15T05:38:38.388Z,24.00
2023-03-15T05:39:38.324Z,32.00
2023-03-15T05:40:38.280Z,36.00
2023-03-15T05:41:38.267Z,36.00
2023-03-15T05:42:38.279Z,36.00
2023-03-15T05:43:38.245Z,40.00
2023-03-15T05:44:38.256Z,40.00
2023-03-15T05:45:38.257Z,40.00
2023-03-15T05:46:39.181Z,44.00
2023-03-15T05:47:38.230Z,48.00
2023-03-15T05:48:38.226Z,52.00
2023-03-15T05:49:38.238Z,52.00
2023-03-15T05:50:38.181Z,52.00
2023-03-15T05:51:38.182Z,52.00
2023-03-15T05:52:38.321Z,56.00
2023-03-15T05:53:38.169Z,64.00
2023-03-15T05:54:38.212Z,76.00
2023-03-15T05:55:38.662Z,84.00
2023-03-15T05:56:38.152Z,92.00
2023-03-15T05:57:38.343Z,108.00
2023-03-15T05:58:38.139Z,112.00
2023-03-15T05:59:39.073Z,112.00
2023-03-15T06:00:38.150Z,112.00
2023-03-15T06:01:38.112Z,120.00
2023-03-15T06:02:38.155Z,124.00
2023-03-15T06:03:38.188Z,132.00
2023-03-15T06:04:38.098Z,140.00
2023-03-15T06:05:38.078Z,148.00
2023-03-15T06:06:38.065Z,164.00
2023-03-15T06:07:38.118Z,164.00
2023-03-15T06:08:38.085Z,176.00
2023-03-15T06:09:38.051Z,188.00
2023-03-15T06:10:38.112Z,208.00
2023-03-15T06:11:38.039Z,220.00
2023-03-15T06:12:38.032Z,240.00
2023-03-15T06:13:38.022Z,260.00
2023-03-15T06:14:38.008Z,272.00
2023-03-15T06:15:38.014Z,288.00
2023-03-15T06:16:38.073Z,300.00
2023-03-15T06:17:38.114Z,312.00
2023-03-15T06:18:38.005Z,308.00
2023-03-15T06:19:38.159Z,324.00
2023-03-15T06:20:39.053Z,376.00
2023-03-15T06:21:37.981Z,408.00
2023-03-15T06:22:37.947Z,436.00
2023-03-15T06:23:37.969Z,448.00
2023-03-15T06:24:37.957Z,476.00
2023-03-15T06:25:37.920Z,496.00
2023-03-15T06:26:37.929Z,516.00
2023-03-15T06:27:37.905Z,564.00
2023-03-15T06:28:37.905Z,612.00
2023-03-15T06:29:37.895Z,644.00
2023-03-15T06:30:37.955Z,660.00
2023-03-15T06:31:37.883Z,692.00
2023-03-15T06:32:37.870Z,704.00
2023-03-15T06:33:37.864Z,712.00
2023-03-15T06:34:37.868Z,728.00
2023-03-15T06:35:38.154Z,724.00
2023-03-15T06:36:37.851Z,724.00
2023-03-15T06:37:37.837Z,772.00
2023-03-15T06:38:37.846Z,812.00
2023-03-15T06:39:37.817Z,824.00
2023-03-15T06:40:37.811Z,820.00
2023-03-15T06:41:37.797Z,884.00
2023-03-15T06:42:37.785Z,940.00
2023-03-15T06:43:37.863Z,968.00
2023-03-15T06:44:38.677Z,964.00
2023-03-15T06:45:37.782Z,944.00
2023-03-15T06:46:37.783Z,996.00
2023-03-15T06:47:37.763Z,1056.00
2023-03-15T06:48:37.776Z,1100.00
2023-03-15T06:49:37.781Z,1088.00
2023-03-15T06:50:46.788Z,1096.00
2023-03-15T06:51:40.624Z,1172.00
2023-03-15T06:52:37.737Z,1176.00
2023-03-15T06:53:37.710Z,1112.00
2023-03-15T06:54:37.714Z,1100.00
2023-03-15T06:55:37.707Z,1044.00
2023-03-15T06:56:37.686Z,1008.00
2023-03-15T06:57:37.699Z,1020.00
2023-03-15T06:58:37.682Z,1116.00
2023-03-15T06:59:37.680Z,1160.00
2023-03-15T07:00:37.665Z,1184.00
2023-03-15T07:01:37.686Z,1200.00
2023-03-15T07:02:37.710Z,1188.00
2023-03-15T07:03:37.678Z,1164.00
2023-03-15T07:04:37.637Z,1092.00
2023-03-15T07:05:37.628Z,1000.00
2023-03-15T07:06:37.632Z,984.00
2023-03-15T07:07:37.600Z,1068.00
2023-03-15T07:08:37.629Z,1092.00
2023-03-15T07:09:37.584Z,1080.00
2023-03-15T07:10:37.627Z,1056.00
2023-03-15T07:11:37.595Z,1008.00
2023-03-15T07:12:37.608Z,944.00
2023-03-15T07:13:37.599Z,956.00
2023-03-15T07:14:38.113Z,1136.00
2023-03-15T07:15:37.629Z,1332.00
2023-03-15T07:16:37.533Z,1384.00
2023-03-15T07:17:37.541Z,1320.00
2023-03-15T07:18:37.519Z,1272.00
2023-03-15T07:19:46.851Z,1288.00
2023-03-15T07:20:39.531Z,1348.00
2023-03-15T07:21:37.514Z,1328.00
2023-03-15T07:22:37.512Z,1360.00
2023-03-15T07:23:37.495Z,1420.00
2023-03-15T07:24:37.512Z,1560.00
2023-03-15T07:25:48.604Z,1472.00
2023-03-15T07:26:39.497Z,1364.00
2023-03-15T07:27:37.474Z,1292.00
2023-03-15T07:28:37.442Z,1288.00
2023-03-15T07:29:37.448Z,1324.00
2023-03-15T07:30:37.451Z,1356.00
2023-03-15T07:31:37.930Z,1420.00
2023-03-15T07:32:37.582Z,1484.00
2023-03-15T07:33:37.428Z,1536.00
2023-03-15T07:34:37.422Z,1680.00
2023-03-15T07:35:37.476Z,1724.00
2023-03-15T07:36:37.431Z,1760.00
2023-03-15T07:37:38.476Z,1852.00
2023-03-15T07:38:37.545Z,1828.00
2023-03-15T07:39:37.373Z,1764.00
2023-03-15T07:40:37.377Z,1748.00
2023-03-15T07:41:37.369Z,1772.00
2023-03-15T07:42:37.356Z,1924.00
2023-03-15T07:43:37.479Z,1992.00
2023-03-15T07:44:37.375Z,2104.00
2023-03-15T07:45:37.418Z,1980.00
2023-03-15T07:46:37.413Z,1832.00
2023-03-15T07:47:37.354Z,1692.00
2023-03-15T07:48:37.348Z,1580.00
2023-03-15T07:49:37.313Z,1548.00
2023-03-15T07:50:37.303Z,1544.00
2023-03-15T07:51:37.356Z,1448.00
2023-03-15T07:52:37.468Z,1532.00
2023-03-15T07:53:37.316Z,1648.00
2023-03-15T07:54:37.287Z,1792.00
2023-03-15T07:55:37.261Z,2036.00
2023-03-15T07:56:37.259Z,2272.00
2023-03-15T07:57:37.331Z,2456.00
2023-03-15T07:58:37.236Z,2420.00
2023-03-15T07:59:37.251Z,2500.00
2023-03-15T08:00:37.263Z,2548.00
2023-03-15T08:01:37.264Z,2716.00
2023-03-15T08:02:37.306Z,2648.00
2023-03-15T08:03:37.205Z,2824.00
2023-03-15T08:04:37.238Z,3056.00
2023-03-15T08:05:37.242Z,3392.00
2023-03-15T08:06:37.269Z,3672.00
2023-03-15T08:07:37.160Z,3820.00
2023-03-15T08:08:37.196Z,3892.00
2023-03-15T08:09:37.133Z,3688.00
2023-03-15T08:10:37.172Z,3500.00
2023-03-15T08:11:37.150Z,3432.00
2023-03-15T08:12:37.129Z,3416.00
2023-03-15T08:13:37.152Z,3476.00
2023-03-15T08:14:38.170Z,3504.00
2023-03-15T08:15:37.127Z,3704.00
2023-03-15T08:16:37.164Z,3900.00
2023-03-15T08:17:37.114Z,4032.00
2023-03-15T08:18:37.080Z,4000.00
2023-03-15T08:19:37.076Z,3888.00
2023-03-15T08:20:38.072Z,3724.00
2023-03-15T08:21:37.049Z,3580.00
2023-03-15T08:22:38.436Z,3384.00
2023-03-15T08:23:38.024Z,3336.00
2023-03-15T08:24:37.015Z,3268.00
2023-03-15T08:25:39.056Z,3232.00
2023-03-15T08:26:37.053Z,3276.00
2023-03-15T08:27:37.038Z,3140.00
2023-03-15T08:28:37.012Z,2988.00
2023-03-15T08:29:37.015Z,3024.00
2023-03-15T08:30:36.997Z,3140.00
2023-03-15T08:31:37.195Z,3384.00
2023-03-15T08:32:37.013Z,3664.00
2023-03-15T08:33:37.008Z,3540.00
2023-03-15T08:34:36.982Z,3648.00
2023-03-15T08:35:37.075Z,3772.00
2023-03-15T08:36:36.988Z,3844.00
2023-03-15T08:37:36.965Z,3788.00
2023-03-15T08:38:36.933Z,3708.00
2023-03-15T08:39:37.008Z,3488.00
2023-03-15T08:40:38.854Z,3244.00
2023-03-15T08:41:36.942Z,3348.00
2023-03-15T08:42:36.908Z,3056.00
2023-03-15T08:43:36.863Z,3160.00
2023-03-15T08:44:36.936Z,3344.00
2023-03-15T08:45:56.889Z,3324.00
2023-03-15T08:46:38.948Z,3196.00
2023-03-15T08:47:36.970Z,3152.00
2023-03-15T08:48:36.849Z,3208.00
2023-03-15T08:49:36.822Z,3096.00
2023-03-15T08:50:36.853Z,2864.00
2023-03-15T08:51:36.837Z,2624.00
2023-03-15T08:52:36.892Z,2472.00
2023-03-15T08:53:36.800Z,2584.00
2023-03-15T08:54:36.803Z,2536.00
2023-03-15T08:55:36.776Z,2620.00
2023-03-15T08:56:36.780Z,2628.00
2023-03-15T08:57:36.761Z,2576.00
2023-03-15T08:58:36.765Z,2572.00
2023-03-15T08:59:36.803Z,2496.00
2023-03-15T09:00:36.747Z,2488.00
2023-03-15T09:01:36.845Z,2524.00
2023-03-15T09:02:36.811Z,2624.00
2023-03-15T09:03:36.721Z,2684.00
2023-03-15T09:04:38.528Z,2748.00
2023-03-15T09:05:36.729Z,2568.00
2023-03-15T09:06:36.712Z,2348.00
2023-03-15T09:07:36.719Z,2180.00
2023-03-15T09:08:36.714Z,1996.00
2023-03-15T09:09:36.731Z,1856.00
2023-03-15T09:10:36.671Z,1864.00
2023-03-15T09:11:36.660Z,1964.00
2023-03-15T09:12:36.667Z,2132.00
2023-03-15T09:13:37.665Z,2576.00
2023-03-15T09:14:36.730Z,2920.00
2023-03-15T09:15:36.718Z,3200.00
2023-03-15T09:16:36.744Z,3240.00
2023-03-15T09:17:36.665Z,2928.00
2023-03-15T09:18:36.618Z,2664.00
2023-03-15T09:19:36.693Z,2568.00
2023-03-15T09:20:37.741Z,2492.00
2023-03-15T09:21:36.634Z,2408.00
2023-03-15T09:22:39.291Z,2460.00
2023-03-15T09:23:37.556Z,2700.00
2023-03-15T09:24:36.549Z,2892.00
2023-03-15T09:25:36.590Z,2948.00
2023-03-15T09:26:36.527Z,2976.00
2023-03-15T09:27:36.539Z,3124.00
2023-03-15T09:28:36.548Z,3272.00
2023-03-15T09:29:36.513Z,3416.00
2023-03-15T09:30:36.586Z,3508.00
2023-03-15T09:31:36.557Z,3528.00
2023-03-15T09:32:36.738Z,3648.00
2023-03-15T09:33:36.536Z,3732.00
2023-03-15T09:34:41.808Z,3448.00
2023-03-15T09:35:38.572Z,3212.00
2023-03-15T09:36:36.557Z,3124.00
2023-03-15T09:37:36.468Z,2972.00
2023-03-15T09:38:36.468Z,2980.00
2023-03-15T09:39:36.494Z,3100.00
2023-03-15T09:40:36.472Z,3192.00
2023-03-15T09:41:36.444Z,3184.00
2023-03-15T09:42:36.443Z,3216.00
2023-03-15T09:43:36.425Z,3244.00
2023-03-15T09:44:36.410Z,3308.00
2023-03-15T09:45:36.527Z,3508.00
2023-03-15T09:46:36.439Z,3680.00
2023-03-15T09:47:36.388Z,3740.00
2023-03-15T09:48:36.393Z,3932.00
2023-03-15T09:49:36.370Z,4208.00
2023-03-15T09:50:36.395Z,4464.00
2023-03-15T09:51:36.432Z,4924.00
2023-03-15T09:52:36.352Z,5496.00
2023-03-15T09:53:36.353Z,5716.00
2023-03-15T09:54:36.425Z,5528.00
2023-03-15T09:55:36.321Z,5488.00
2023-03-15T09:56:36.496Z,5596.00
2023-03-15T09:57:36.338Z,5280.00
2023-03-15T09:58:36.301Z,4856.00
2023-03-15T09:59:36.300Z,4756.00
2023-03-15T10:00:36.313Z,5068.00
2023-03-15T10:01:37.243Z,5196.00
2023-03-15T10:02:36.719Z,5008.00
2023-03-15T10:03:36.306Z,5448.00
2023-03-15T10:04:36.284Z,6616.00
2023-03-15T10:05:36.274Z,7192.00
2023-03-15T10:06:37.863Z,8304.00
2023-03-15T10:07:37.298Z,9332.00
2023-03-15T10:08:36.214Z,10076.00
2023-03-15T10:09:36.225Z,10520.00
2023-03-15T10:10:37.154Z,10300.00
2023-03-15T10:11:36.246Z,10036.00
2023-03-15T10:12:36.213Z,10248.00
2023-03-15T10:13:36.210Z,10448.00
2023-03-15T10:14:36.201Z,10880.00
2023-03-15T10:15:36.157Z,10500.00
2023-03-15T10:16:36.176Z,10396.00
2023-03-15T10:17:36.180Z,10852.00
2023-03-15T10:18:36.138Z,11724.00
2023-03-15T10:19:36.328Z,12104.00
2023-03-15T10:20:36.197Z,13832.00
2023-03-15T10:21:36.155Z,12200.00
2023-03-15T10:22:36.116Z,12804.00
2023-03-15T10:23:36.105Z,11824.00
2023-03-15T10:24:36.114Z,11468.00
2023-03-15T10:25:36.185Z,10860.00
2023-03-15T10:26:36.086Z,9928.00
2023-03-15T10:27:36.091Z,10216.00
2023-03-15T10:28:37.169Z,10460.00
2023-03-15T10:29:37.095Z,10260.00
2023-03-15T10:30:36.144Z,9076.00
2023-03-15T10:31:44.203Z,8144.00
2023-03-15T10:32:38.062Z,7572.00
2023-03-15T10:33:36.072Z,6988.00
2023-03-15T10:34:36.039Z,6552.00
2023-03-15T10:35:36.081Z,6160.00
2023-03-15T10:36:36.948Z,5816.00
2023-03-15T10:37:35.991Z,5524.00
2023-03-15T10:38:36.081Z,5544.00
2023-03-15T10:39:35.977Z,5756.00
2023-03-15T10:40:36.008Z,6252.00
2023-03-15T10:41:35.978Z,6672.00
2023-03-15T10:42:35.993Z,7336.00
2023-03-15T10:43:36.664Z,7420.00
2023-03-15T10:44:35.913Z,7800.00
2023-03-15T10:45:35.935Z,8188.00
2023-03-15T10:46:35.956Z,8512.00
2023-03-15T10:47:35.938Z,8564.00
2023-03-15T10:48:35.934Z,8372.00
2023-03-15T10:49:35.884Z,7856.00
2023-03-15T10:50:35.963Z,7372.00
2023-03-15T10:51:35.919Z,7228.00
2023-03-15T10:52:36.895Z,7240.00
2023-03-15T10:53:36.950Z,7412.00
2023-03-15T10:54:35.868Z,7600.00
2023-03-15T10:55:35.867Z,7528.00
2023-03-15T10:56:35.873Z,7168.00
2023-03-15T10:57:35.871Z,6852.00
2023-03-15T10:58:35.823Z,6888.00
2023-03-15T10:59:35.853Z,7000.00
2023-03-15T11:00:35.829Z,6976.00
2023-03-15T11:01:35.873Z,6888.00
2023-03-15T11:02:35.847Z,6688.00
2023-03-15T11:03:36.452Z,6560.00
2023-03-15T11:04:35.773Z,6540.00
2023-03-15T11:05:35.786Z,6632.00
2023-03-15T11:06:35.781Z,6928.00
2023-03-15T11:07:35.795Z,7092.00
2023-03-15T11:08:35.757Z,7276.00
2023-03-15T11:09:35.801Z,7392.00
2023-03-15T11:10:35.723Z,7636.00
2023-03-15T11:11:35.784Z,8016.00
2023-03-15T11:12:35.796Z,8196.00
2023-03-15T11:14:08.642Z,8448.00
2023-03-15T11:14:35.703Z,8732.00
2023-03-15T11:15:35.707Z,9100.00
2023-03-15T11:16:35.767Z,10284.00
2023-03-15T11:17:36.651Z,13984.00
2023-03-15T11:18:36.713Z,13636.00
2023-03-15T11:19:35.679Z,12148.00
2023-03-15T11:20:35.668Z,14068.00
2023-03-15T11:21:35.660Z,15236.00
2023-03-15T11:22:36.712Z,11388.00
2023-03-15T11:23:36.511Z,10460.00
2023-03-15T11:24:35.662Z,9848.00
2023-03-15T11:25:35.631Z,10724.00
2023-03-15T11:26:35.635Z,10280.00
2023-03-15T11:27:35.608Z,9948.00
2023-03-15T11:28:35.649Z,9216.00
2023-03-15T11:29:35.614Z,8556.00
2023-03-15T11:30:35.633Z,8368.00
2023-03-15T11:31:35.740Z,8768.00
2023-03-15T11:32:35.636Z,9228.00
2023-03-15T11:33:35.579Z,9604.00
2023-03-15T11:34:35.544Z,9884.00
2023-03-15T11:35:35.665Z,11104.00
2023-03-15T11:36:35.549Z,13420.00
2023-03-15T11:37:35.593Z,11624.00
2023-03-15T11:38:35.524Z,11472.00
2023-03-15T11:39:36.164Z,11580.00
2023-03-15T11:40:36.687Z,14312.00
2023-03-15T11:41:35.526Z,13700.00
2023-03-15T11:42:35.492Z,13908.00
2023-03-15T11:43:36.193Z,13392.00
2023-03-15T11:44:35.481Z,12012.00
2023-03-15T11:45:36.257Z,11416.00
2023-03-15T11:46:35.500Z,11644.00
2023-03-15T11:47:36.182Z,11064.00
2023-03-15T11:48:35.444Z,11376.00
2023-03-15T11:49:35.474Z,10780.00
2023-03-15T11:50:35.517Z,13168.00
2023-03-15T11:51:35.439Z,13228.00
2023-03-15T11:52:35.496Z,12952.00
2023-03-15T11:53:35.502Z,12792.00
2023-03-15T11:54:35.425Z,10144.00
2023-03-15T11:55:35.395Z,12104.00
2023-03-15T11:56:35.389Z,11464.00
2023-03-15T11:57:35.376Z,11048.00
2023-03-15T11:58:36.099Z,10584.00
2023-03-15T11:59:35.395Z,8132.00
2023-03-15T12:00:35.371Z,9600.00
2023-03-15T12:01:35.402Z,9964.00
2023-03-15T12:02:36.217Z,9572.00
2023-03-15T12:03:35.368Z,9504.00
2023-03-15T12:04:35.350Z,9428.00
2023-03-15T12:05:35.323Z,9516.00
2023-03-15T12:06:35.365Z,9432.00
2023-03-15T12:07:35.310Z,9332.00
2023-03-15T12:08:35.318Z,9340.00
2023-03-15T12:09:35.336Z,9268.00
2023-03-15T12:10:35.322Z,9380.00
2023-03-15T12:11:35.380Z,9552.00
2023-03-15T12:12:35.292Z,9848.00
2023-03-15T12:13:36.230Z,10144.00
2023-03-15T12:14:35.252Z,10224.00
2023-03-15T12:15:35.282Z,10844.00
2023-03-15T12:16:35.269Z,11216.00
2023-03-15T12:17:37.439Z,11324.00
2023-03-15T12:18:36.208Z,10284.00
2023-03-15T12:19:35.201Z,7952.00
2023-03-15T12:20:35.226Z,7908.00
2023-03-15T12:21:35.162Z,7624.00
2023-03-15T12:22:35.206Z,7248.00
2023-03-15T12:23:35.142Z,6972.00
2023-03-15T12:24:35.143Z,6812.00
2023-03-15T12:25:39.461Z,6444.00
2023-03-15T12:26:37.163Z,5964.00
2023-03-15T12:27:35.122Z,5620.00
2023-03-15T12:28:35.125Z,5432.00
2023-03-15T12:29:35.146Z,5300.00
2023-03-15T12:30:35.172Z,5076.00
2023-03-15T12:31:35.115Z,5056.00
2023-03-15T12:32:35.122Z,5116.00
2023-03-15T12:33:35.092Z,5380.00
2023-03-15T12:34:35.069Z,5528.00
2023-03-15T12:35:35.072Z,5728.00
2023-03-15T12:36:35.090Z,6108.00
2023-03-15T12:37:35.072Z,10924.00
2023-03-15T12:38:35.060Z,11200.00
2023-03-15T12:39:35.054Z,11304.00
2023-03-15T12:40:35.023Z,11208.00
2023-03-15T12:41:35.008Z,7068.00
2023-03-15T12:42:35.009Z,6580.00
2023-03-15T12:43:35.005Z,6456.00
2023-03-15T12:44:35.102Z,6324.00
2023-03-15T12:45:37.295Z,6244.00
2023-03-15T12:46:34.980Z,6224.00
2023-03-15T12:47:35.112Z,10740.00
2023-03-15T12:48:34.962Z,10840.00
2023-03-15T12:49:35.034Z,9172.00
2023-03-15T12:50:35.073Z,10888.00